sensor_id;sensor_type;location;lat;lon;timestamp;pressure;altitude;pressure_sealevel;temperature;humidity
54248;BME280;40161;39.768;2.722;2023-04-19T00:00:18;101260.72;;;11.91;65.56
54248;BME280;40161;39.768;2.722;2023-04-19T00:02:45;101255.56;;;11.89;64.62
54248;BME280;40161;39.768;2.722;2023-04-19T00:05:13;101243.88;;;11.57;66.13
54248;BME280;40161;39.768;2.722;2023-04-19T00:07:39;101257.31;;;11.62;66.07
54248;BME280;40161;39.768;2.722;2023-04-19T00:10:05;101243.50;;;11.78;65.78
54248;BME280;40161;39.768;2.722;2023-04-19T00:12:31;101263.66;;;12.01;64.88
54248;BME280;40161;39.768;2.722;2023-04-19T00:14:57;101253.66;;;11.93;65.82
54248;BME280;40161;39.768;2.722;2023-04-19T00:17:22;101249.09;;;11.81;66.39
54248;BME280;40161;39.768;2.722;2023-04-19T00:19:48;101245.41;;;11.74;66.40
54248;BME280;40161;39.768;2.722;2023-04-19T00:22:13;101258.38;;;12.12;64.61
54248;BME280;40161;39.768;2.722;2023-04-19T00:24:39;101236.91;;;11.82;64.64
54248;BME280;40161;39.768;2.722;2023-04-19T00:27:04;101229.31;;;11.56;66.61
54248;BME280;40161;39.768;2.722;2023-04-19T00:29:30;101228.84;;;11.70;66.58
54248;BME280;40161;39.768;2.722;2023-04-19T00:31:56;101226.94;;;11.74;65.67
54248;BME280;40161;39.768;2.722;2023-04-19T00:34:21;101248.78;;;11.67;66.95
54248;BME280;40161;39.768;2.722;2023-04-19T00:36:47;101219.03;;;11.73;66.26
54248;BME280;40161;39.768;2.722;2023-04-19T00:39:12;101240.28;;;11.92;64.95
54248;BME280;40161;39.768;2.722;2023-04-19T00:41:38;101207.25;;;11.53;66.46
54248;BME280;40161;39.768;2.722;2023-04-19T00:44:03;101204.22;;;11.58;66.21
54248;BME280;40161;39.768;2.722;2023-04-19T00:46:29;101228.66;;;11.82;65.29
54248;BME280;40161;39.768;2.722;2023-04-19T00:48:54;101236.75;;;11.56;66.56
54248;BME280;40161;39.768;2.722;2023-04-19T00:51:20;101243.44;;;11.74;66.70
54248;BME280;40161;39.768;2.722;2023-04-19T00:53:46;101225.50;;;11.61;66.52
54248;BME280;40161;39.768;2.722;2023-04-19T00:56:12;101234.94;;;11.44;67.51
54248;BME280;40161;39.768;2.722;2023-04-19T00:58:39;101226.50;;;11.53;68.44
54248;BME280;40161;39.768;2.722;2023-04-19T01:01:04;101202.78;;;11.64;67.47
54248;BME280;40161;39.768;2.722;2023-04-19T01:03:30;101207.56;;;11.67;66.63
54248;BME280;40161;39.768;2.722;2023-04-19T01:05:56;101206.28;;;11.45;68.30
54248;BME280;40161;39.768;2.722;2023-04-19T01:08:22;101199.03;;;11.17;68.73
54248;BME280;40161;39.768;2.722;2023-04-19T01:10:48;101212.16;;;11.44;68.75
54248;BME280;40161;39.768;2.722;2023-04-19T01:13:14;101211.88;;;11.68;67.28
54248;BME280;40161;39.768;2.722;2023-04-19T01:15:39;101187.72;;;11.58;66.65
54248;BME280;40161;39.768;2.722;2023-04-19T01:18:05;101187.28;;;11.36;67.09
54248;BME280;40161;39.768;2.722;2023-04-19T01:20:30;101218.19;;;11.69;66.96
54248;BME280;40161;39.768;2.722;2023-04-19T01:22:56;101193.94;;;11.55;66.05
54248;BME280;40161;39.768;2.722;2023-04-19T01:25:21;101205.66;;;11.32;68.26
54248;BME280;40161;39.768;2.722;2023-04-19T01:27:47;101218.94;;;11.30;69.26
54248;BME280;40161;39.768;2.722;2023-04-19T01:30:13;101199.50;;;11.39;67.14
54248;BME280;40161;39.768;2.722;2023-04-19T01:32:38;101168.06;;;11.01;66.78
54248;BME280;40161;39.768;2.722;2023-04-19T01:35:04;101193.28;;;11.42;67.21
54248;BME280;40161;39.768;2.722;2023-04-19T01:37:30;101172.16;;;11.27;66.89
54248;BME280;40161;39.768;2.722;2023-04-19T01:39:59;101196.19;;;11.14;69.06
54248;BME280;40161;39.768;2.722;2023-04-19T01:42:24;101205.00;;;11.04;69.33
54248;BME280;40161;39.768;2.722;2023-04-19T01:44:51;101185.28;;;11.17;69.47
54248;BME280;40161;39.768;2.722;2023-04-19T01:47:16;101194.97;;;11.47;67.55
54248;BME280;40161;39.768;2.722;2023-04-19T01:49:42;101199.81;;;11.53;66.22
54248;BME280;40161;39.768;2.722;2023-04-19T01:52:07;101171.28;;;11.23;68.09
54248;BME280;40161;39.768;2.722;2023-04-19T01:54:33;101201.09;;;11.05;67.40
54248;BME280;40161;39.768;2.722;2023-04-19T01:56:58;101193.25;;;10.72;69.01
54248;BME280;40161;39.768;2.722;2023-04-19T01:59:24;101173.09;;;10.64;70.58
54248;BME280;40161;39.768;2.722;2023-04-19T02:01:49;101188.47;;;10.84;69.07
54248;BME280;40161;39.768;2.722;2023-04-19T02:04:20;101174.50;;;10.74;68.98
54248;BME280;40161;39.768;2.722;2023-04-19T02:06:46;101189.28;;;10.69;70.13
54248;BME280;40161;39.768;2.722;2023-04-19T02:09:11;101164.31;;;10.42;71.60
54248;BME280;40161;39.768;2.722;2023-04-19T02:11:37;101185.53;;;10.45;71.68
54248;BME280;40161;39.768;2.722;2023-04-19T02:14:03;101182.81;;;10.77;71.87
54248;BME280;40161;39.768;2.722;2023-04-19T02:16:28;101168.97;;;10.89;70.66
54248;BME280;40161;39.768;2.722;2023-04-19T02:18:54;101177.19;;;10.89;70.37
54248;BME280;40161;39.768;2.722;2023-04-19T02:21:20;101142.22;;;10.86;70.17
54248;BME280;40161;39.768;2.722;2023-04-19T02:23:45;101174.16;;;11.10;68.81
54248;BME280;40161;39.768;2.722;2023-04-19T02:26:11;101154.50;;;11.08;69.62
54248;BME280;40161;39.768;2.722;2023-04-19T02:28:37;101183.28;;;11.34;68.66
54248;BME280;40161;39.768;2.722;2023-04-19T02:31:04;101173.91;;;10.84;69.62
54248;BME280;40161;39.768;2.722;2023-04-19T02:33:30;101166.34;;;10.45;72.19
54248;BME280;40161;39.768;2.722;2023-04-19T02:35:56;101166.66;;;10.91;70.54
54248;BME280;40161;39.768;2.722;2023-04-19T02:38:21;101171.38;;;10.75;69.71
54248;BME280;40161;39.768;2.722;2023-04-19T02:40:47;101180.94;;;10.65;70.68
54248;BME280;40161;39.768;2.722;2023-04-19T02:43:12;101172.63;;;10.62;70.87
54248;BME280;40161;39.768;2.722;2023-04-19T02:45:38;101188.84;;;10.67;70.54
54248;BME280;40161;39.768;2.722;2023-04-19T02:48:04;101150.84;;;10.69;71.38
54248;BME280;40161;39.768;2.722;2023-04-19T02:50:31;101161.31;;;10.63;70.30
54248;BME280;40161;39.768;2.722;2023-04-19T02:52:57;101174.38;;;10.86;70.53
54248;BME280;40161;39.768;2.722;2023-04-19T02:55:23;101176.72;;;11.03;70.66
54248;BME280;40161;39.768;2.722;2023-04-19T02:57:48;101176.78;;;10.72;70.48
54248;BME280;40161;39.768;2.722;2023-04-19T03:00:14;101156.69;;;10.52;70.98
54248;BME280;40161;39.768;2.722;2023-04-19T03:02:42;101160.50;;;10.47;70.92
54248;BME280;40161;39.768;2.722;2023-04-19T03:05:09;101178.31;;;10.37;71.52
54248;BME280;40161;39.768;2.722;2023-04-19T03:07:35;101161.22;;;10.28;72.79
54248;BME280;40161;39.768;2.722;2023-04-19T03:10:00;101168.13;;;10.54;73.37
54248;BME280;40161;39.768;2.722;2023-04-19T03:12:26;101161.94;;;10.57;70.74
54248;BME280;40161;39.768;2.722;2023-04-19T03:14:51;101141.78;;;10.21;72.71
54248;BME280;40161;39.768;2.722;2023-04-19T03:17:17;101086.94;;;9.89;72.80
54248;BME280;40161;39.768;2.722;2023-04-19T03:19:43;101071.22;;;10.02;72.74
54248;BME280;40161;39.768;2.722;2023-04-19T03:22:09;101076.88;;;10.09;72.17
54248;BME280;40161;39.768;2.722;2023-04-19T03:24:34;101136.53;;;10.60;72.07
54248;BME280;40161;39.768;2.722;2023-04-19T03:27:01;101121.31;;;10.31;71.10
54248;BME280;40161;39.768;2.722;2023-04-19T03:29:26;101075.34;;;9.96;71.97
54248;BME280;40161;39.768;2.722;2023-04-19T03:31:52;101124.22;;;10.22;71.95
54248;BME280;40161;39.768;2.722;2023-04-19T03:34:17;101145.56;;;10.01;73.00
54248;BME280;40161;39.768;2.722;2023-04-19T03:36:44;101139.66;;;9.98;73.46
54248;BME280;40161;39.768;2.722;2023-04-19T03:39:10;101108.78;;;9.86;73.96
54248;BME280;40161;39.768;2.722;2023-04-19T03:41:36;101128.41;;;9.88;74.43
54248;BME280;40161;39.768;2.722;2023-04-19T03:44:01;101111.59;;;9.89;73.62
54248;BME280;40161;39.768;2.722;2023-04-19T03:46:27;101143.03;;;10.08;73.86
54248;BME280;40161;39.768;2.722;2023-04-19T03:48:56;101107.13;;;10.13;72.54
54248;BME280;40161;39.768;2.722;2023-04-19T03:51:21;101143.41;;;10.22;74.70
54248;BME280;40161;39.768;2.722;2023-04-19T03:53:47;101138.28;;;10.52;72.23
54248;BME280;40161;39.768;2.722;2023-04-19T03:56:12;101151.22;;;10.67;71.39
54248;BME280;40161;39.768;2.722;2023-04-19T03:58:38;101141.19;;;10.59;71.23
54248;BME280;40161;39.768;2.722;2023-04-19T04:01:03;101144.22;;;10.38;71.97
54248;BME280;40161;39.768;2.722;2023-04-19T04:03:31;101143.19;;;10.15;73.23
54248;BME280;40161;39.768;2.722;2023-04-19T04:05:57;101134.09;;;10.11;73.49
54248;BME280;40161;39.768;2.722;2023-04-19T04:08:22;101152.44;;;10.22;74.30
54248;BME280;40161;39.768;2.722;2023-04-19T04:10:48;101139.25;;;10.12;73.53
54248;BME280;40161;39.768;2.722;2023-04-19T04:13:13;101075.34;;;9.80;73.16
54248;BME280;40161;39.768;2.722;2023-04-19T04:15:39;101133.84;;;10.32;72.64
54248;BME280;40161;39.768;2.722;2023-04-19T04:18:04;101117.47;;;10.04;73.76
54248;BME280;40161;39.768;2.722;2023-04-19T04:20:30;101149.78;;;10.42;73.15
54248;BME280;40161;39.768;2.722;2023-04-19T04:22:56;101141.78;;;10.21;72.77
54248;BME280;40161;39.768;2.722;2023-04-19T04:25:21;101135.72;;;10.12;74.43
54248;BME280;40161;39.768;2.722;2023-04-19T04:27:49;101147.06;;;10.26;73.48
54248;BME280;40161;39.768;2.722;2023-04-19T04:30:16;101141.06;;;10.36;74.33
54248;BME280;40161;39.768;2.722;2023-04-19T04:32:41;101138.47;;;10.43;73.39
54248;BME280;40161;39.768;2.722;2023-04-19T04:35:08;101134.72;;;10.20;73.00
54248;BME280;40161;39.768;2.722;2023-04-19T04:37:35;101124.44;;;9.85;74.25
54248;BME280;40161;39.768;2.722;2023-04-19T04:40:01;101129.31;;;10.08;75.02
54248;BME280;40161;39.768;2.722;2023-04-19T04:42:29;101143.63;;;10.29;73.83
54248;BME280;40161;39.768;2.722;2023-04-19T04:44:56;101134.22;;;10.30;73.26
54248;BME280;40161;39.768;2.722;2023-04-19T04:47:22;101148.66;;;10.43;72.94
54248;BME280;40161;39.768;2.722;2023-04-19T04:49:48;101156.97;;;10.47;73.48
54248;BME280;40161;39.768;2.722;2023-04-19T04:52:14;101145.75;;;10.36;72.57
54248;BME280;40161;39.768;2.722;2023-04-19T04:54:39;101139.19;;;10.40;73.05
54248;BME280;40161;39.768;2.722;2023-04-19T04:57:05;101129.72;;;10.38;73.34
54248;BME280;40161;39.768;2.722;2023-04-19T04:59:31;101150.38;;;10.19;73.14
54248;BME280;40161;39.768;2.722;2023-04-19T05:01:56;101077.13;;;9.88;72.88
54248;BME280;40161;39.768;2.722;2023-04-19T05:04:22;101149.84;;;10.14;72.67
54248;BME280;40161;39.768;2.722;2023-04-19T05:06:47;101135.63;;;10.08;74.13
54248;BME280;40161;39.768;2.722;2023-04-19T05:09:13;101132.56;;;9.97;73.57
54248;BME280;40161;39.768;2.722;2023-04-19T05:11:38;101147.19;;;10.02;73.36
54248;BME280;40161;39.768;2.722;2023-04-19T05:14:04;101145.50;;;9.97;73.43
54248;BME280;40161;39.768;2.722;2023-04-19T05:16:29;101152.94;;;10.12;73.57
54248;BME280;40161;39.768;2.722;2023-04-19T05:18:55;101143.94;;;9.68;74.24
54248;BME280;40161;39.768;2.722;2023-04-19T05:21:21;101157.28;;;9.69;77.05
54248;BME280;40161;39.768;2.722;2023-04-19T05:23:47;101145.81;;;9.80;76.82
54248;BME280;40161;39.768;2.722;2023-04-19T05:26:13;101163.75;;;10.05;76.24
54248;BME280;40161;39.768;2.722;2023-04-19T05:28:40;101153.75;;;10.13;74.27
54248;BME280;40161;39.768;2.722;2023-04-19T05:31:07;101151.78;;;10.13;73.98
54248;BME280;40161;39.768;2.722;2023-04-19T05:33:33;101142.16;;;10.19;74.40
54248;BME280;40161;39.768;2.722;2023-04-19T05:35:58;101162.00;;;10.29;73.53
54248;BME280;40161;39.768;2.722;2023-04-19T05:38:24;101168.41;;;10.33;73.14
54248;BME280;40161;39.768;2.722;2023-04-19T05:40:49;101164.53;;;10.21;73.86
54248;BME280;40161;39.768;2.722;2023-04-19T05:43:15;101168.72;;;10.31;72.87
54248;BME280;40161;39.768;2.722;2023-04-19T05:45:40;101157.44;;;10.33;73.50
54248;BME280;40161;39.768;2.722;2023-04-19T05:48:06;101157.75;;;9.87;73.67
54248;BME280;40161;39.768;2.722;2023-04-19T05:50:32;101178.25;;;10.21;74.19
54248;BME280;40161;39.768;2.722;2023-04-19T05:52:57;101147.91;;;10.14;73.19
54248;BME280;40161;39.768;2.722;2023-04-19T05:55:23;101158.53;;;10.16;72.62
54248;BME280;40161;39.768;2.722;2023-04-19T05:57:49;101160.91;;;10.17;73.68
54248;BME280;40161;39.768;2.722;2023-04-19T06:00:15;101188.22;;;10.26;72.29
54248;BME280;40161;39.768;2.722;2023-04-19T06:02:40;101177.69;;;10.44;72.41
54248;BME280;40161;39.768;2.722;2023-04-19T06:05:06;101183.72;;;10.50;71.92
54248;BME280;40161;39.768;2.722;2023-04-19T06:07:32;101173.53;;;10.50;73.05
54248;BME280;40161;39.768;2.722;2023-04-19T06:09:57;101191.75;;;10.42;72.31
54248;BME280;40161;39.768;2.722;2023-04-19T06:12:23;101157.91;;;10.22;72.85
54248;BME280;40161;39.768;2.722;2023-04-19T06:14:48;101162.09;;;10.32;73.60
54248;BME280;40161;39.768;2.722;2023-04-19T06:17:14;101155.59;;;10.25;73.29
54248;BME280;40161;39.768;2.722;2023-04-19T06:19:41;101185.38;;;10.54;72.07
54248;BME280;40161;39.768;2.722;2023-04-19T06:22:07;101189.88;;;10.31;74.45
54248;BME280;40161;39.768;2.722;2023-04-19T06:24:32;101189.19;;;10.34;74.70
54248;BME280;40161;39.768;2.722;2023-04-19T06:26:58;101187.97;;;10.47;74.53
54248;BME280;40161;39.768;2.722;2023-04-19T06:29:23;101141.19;;;10.12;73.31
54248;BME280;40161;39.768;2.722;2023-04-19T06:31:50;101180.97;;;10.50;75.74
54248;BME280;40161;39.768;2.722;2023-04-19T06:34:15;101167.25;;;10.50;74.18
54248;BME280;40161;39.768;2.722;2023-04-19T06:36:41;101182.03;;;10.61;75.36
54248;BME280;40161;39.768;2.722;2023-04-19T06:39:06;101200.75;;;10.90;74.11
54248;BME280;40161;39.768;2.722;2023-04-19T06:41:32;101174.53;;;10.93;74.54
54248;BME280;40161;39.768;2.722;2023-04-19T06:43:58;101179.31;;;10.96;73.62
54248;BME280;40161;39.768;2.722;2023-04-19T06:46:23;101192.56;;;11.10;72.87
54248;BME280;40161;39.768;2.722;2023-04-19T06:48:49;101198.84;;;11.26;73.05
54248;BME280;40161;39.768;2.722;2023-04-19T06:51:14;101189.97;;;11.33;71.94
54248;BME280;40161;39.768;2.722;2023-04-19T06:53:40;101185.09;;;11.46;71.71
54248;BME280;40161;39.768;2.722;2023-04-19T06:56:06;101174.03;;;11.42;70.03
54248;BME280;40161;39.768;2.722;2023-04-19T06:58:32;101182.38;;;11.65;70.57
54248;BME280;40161;39.768;2.722;2023-04-19T07:00:58;101193.50;;;11.72;70.22
54248;BME280;40161;39.768;2.722;2023-04-19T07:03:24;101188.22;;;11.83;69.63
54248;BME280;40161;39.768;2.722;2023-04-19T07:05:49;101175.13;;;11.76;68.62
54248;BME280;40161;39.768;2.722;2023-04-19T07:08:16;101188.97;;;11.99;69.30
54248;BME280;40161;39.768;2.722;2023-04-19T07:10:42;101161.75;;;11.94;68.21
54248;BME280;40161;39.768;2.722;2023-04-19T07:13:09;101186.19;;;12.19;68.94
54248;BME280;40161;39.768;2.722;2023-04-19T07:15:35;101179.56;;;12.23;68.40
54248;BME280;40161;39.768;2.722;2023-04-19T07:18:01;101168.13;;;12.21;67.79
54248;BME280;40161;39.768;2.722;2023-04-19T07:20:26;101150.41;;;12.19;68.48
54248;BME280;40161;39.768;2.722;2023-04-19T07:22:52;101187.91;;;12.50;67.94
54248;BME280;40161;39.768;2.722;2023-04-19T07:25:18;101165.38;;;12.44;66.21
54248;BME280;40161;39.768;2.722;2023-04-19T07:27:43;101155.22;;;12.48;66.01
54248;BME280;40161;39.768;2.722;2023-04-19T07:30:09;101191.50;;;12.77;65.39
54248;BME280;40161;39.768;2.722;2023-04-19T07:32:35;101153.91;;;12.65;65.04
54248;BME280;40161;39.768;2.722;2023-04-19T07:35:00;101190.59;;;12.96;65.14
54248;BME280;40161;39.768;2.722;2023-04-19T07:37:26;101156.19;;;12.86;64.49
54248;BME280;40161;39.768;2.722;2023-04-19T07:39:52;101185.31;;;13.14;63.21
54248;BME280;40161;39.768;2.722;2023-04-19T07:42:18;101174.69;;;13.12;63.01
54248;BME280;40161;39.768;2.722;2023-04-19T07:44:43;101182.78;;;13.28;62.37
54248;BME280;40161;39.768;2.722;2023-04-19T07:47:09;101192.06;;;13.43;62.42
54248;BME280;40161;39.768;2.722;2023-04-19T07:49:35;101191.38;;;13.49;60.46
54248;BME280;40161;39.768;2.722;2023-04-19T07:52:01;101186.72;;;13.57;59.77
54248;BME280;40161;39.768;2.722;2023-04-19T07:54:27;101177.28;;;13.58;59.13
54248;BME280;40161;39.768;2.722;2023-04-19T07:56:53;101170.69;;;13.66;58.05
54248;BME280;40161;39.768;2.722;2023-04-19T07:59:19;101169.72;;;13.85;55.43
54248;BME280;40161;39.768;2.722;2023-04-19T08:01:44;101149.16;;;13.79;55.99
54248;BME280;40161;39.768;2.722;2023-04-19T08:04:10;101165.94;;;14.00;55.11
54248;BME280;40161;39.768;2.722;2023-04-19T08:06:36;101168.84;;;14.15;55.27
54248;BME280;40161;39.768;2.722;2023-04-19T08:09:03;101174.84;;;14.28;54.29
54248;BME280;40161;39.768;2.722;2023-04-19T08:11:30;101181.31;;;14.42;53.56
54248;BME280;40161;39.768;2.722;2023-04-19T08:13:56;101178.56;;;14.42;53.51
54248;BME280;40161;39.768;2.722;2023-04-19T08:16:21;101189.38;;;14.62;54.01
54248;BME280;40161;39.768;2.722;2023-04-19T08:18:47;101180.75;;;14.67;53.09
54248;BME280;40161;39.768;2.722;2023-04-19T08:21:16;101184.75;;;14.73;53.02
54248;BME280;40161;39.768;2.722;2023-04-19T08:23:41;101185.69;;;14.91;53.44
54248;BME280;40161;39.768;2.722;2023-04-19T08:26:07;101184.13;;;14.94;53.06
54248;BME280;40161;39.768;2.722;2023-04-19T08:28:32;101187.28;;;15.00;53.04
54248;BME280;40161;39.768;2.722;2023-04-19T08:30:58;101182.66;;;15.11;53.04
54248;BME280;40161;39.768;2.722;2023-04-19T08:33:23;101199.72;;;15.27;53.55
54248;BME280;40161;39.768;2.722;2023-04-19T08:35:49;101183.88;;;15.24;52.94
54248;BME280;40161;39.768;2.722;2023-04-19T08:38:15;101192.25;;;15.35;51.66
54248;BME280;40161;39.768;2.722;2023-04-19T08:40:45;101195.91;;;15.53;50.35
54248;BME280;40161;39.768;2.722;2023-04-19T08:43:11;101198.28;;;15.58;50.66
54248;BME280;40161;39.768;2.722;2023-04-19T08:45:37;101195.16;;;15.63;50.17
54248;BME280;40161;39.768;2.722;2023-04-19T08:48:05;101209.06;;;15.74;50.96
54248;BME280;40161;39.768;2.722;2023-04-19T08:50:34;101179.38;;;15.68;50.53
54248;BME280;40161;39.768;2.722;2023-04-19T08:53:00;101211.91;;;16.03;49.36
54248;BME280;40161;39.768;2.722;2023-04-19T08:55:28;101199.66;;;16.04;48.69
54248;BME280;40161;39.768;2.722;2023-04-19T08:57:55;101189.75;;;15.96;48.64
54248;BME280;40161;39.768;2.722;2023-04-19T09:00:21;101195.31;;;16.17;47.67
54248;BME280;40161;39.768;2.722;2023-04-19T09:02:51;101208.00;;;16.29;47.93
54248;BME280;40161;39.768;2.722;2023-04-19T09:05:21;101192.19;;;16.33;48.09
54248;BME280;40161;39.768;2.722;2023-04-19T09:07:47;101215.16;;;16.48;47.31
54248;BME280;40161;39.768;2.722;2023-04-19T09:10:15;101215.56;;;16.60;46.13
54248;BME280;40161;39.768;2.722;2023-04-19T09:12:41;101202.13;;;16.80;44.92
54248;BME280;40161;39.768;2.722;2023-04-19T09:15:08;101209.66;;;16.87;44.95
54248;BME280;40161;39.768;2.722;2023-04-19T09:17:35;101209.22;;;16.99;42.91
54248;BME280;40161;39.768;2.722;2023-04-19T09:20:01;101210.03;;;17.11;44.85
54248;BME280;40161;39.768;2.722;2023-04-19T09:22:29;101204.50;;;17.03;45.50
54248;BME280;40161;39.768;2.722;2023-04-19T09:24:54;101218.69;;;17.20;44.41
54248;BME280;40161;39.768;2.722;2023-04-19T09:27:38;101206.44;;;17.24;44.86
54248;BME280;40161;39.768;2.722;2023-04-19T09:30:04;101203.66;;;17.21;44.21
54248;BME280;40161;39.768;2.722;2023-04-19T09:32:45;101211.91;;;17.42;43.86
54248;BME280;40161;39.768;2.722;2023-04-19T09:35:10;101187.38;;;17.26;45.38
54248;BME280;40161;39.768;2.722;2023-04-19T09:37:36;101197.22;;;17.52;43.40
54248;BME280;40161;39.768;2.722;2023-04-19T09:40:23;101218.13;;;17.71;44.76
54248;BME280;40161;39.768;2.722;2023-04-19T09:42:49;101197.16;;;17.63;45.49
54248;BME280;40161;39.768;2.722;2023-04-19T09:45:15;101206.66;;;17.69;46.01
54248;BME280;40161;39.768;2.722;2023-04-19T09:47:40;101213.78;;;17.81;47.21
54248;BME280;40161;39.768;2.722;2023-04-19T09:50:07;101197.50;;;17.83;47.49
54248;BME280;40161;39.768;2.722;2023-04-19T09:52:33;101191.97;;;17.79;47.39
54248;BME280;40161;39.768;2.722;2023-04-19T09:55:04;101197.44;;;17.97;47.01
54248;BME280;40161;39.768;2.722;2023-04-19T09:57:31;101189.91;;;17.94;46.80
54248;BME280;40161;39.768;2.722;2023-04-19T09:59:58;101200.53;;;18.10;47.30
54248;BME280;40161;39.768;2.722;2023-04-19T10:02:29;101199.31;;;18.15;47.93
54248;BME280;40161;39.768;2.722;2023-04-19T10:04:56;101193.75;;;18.15;47.38
54248;BME280;40161;39.768;2.722;2023-04-19T10:07:23;101187.00;;;18.16;48.14
54248;BME280;40161;39.768;2.722;2023-04-19T10:09:50;101191.75;;;18.19;46.22
54248;BME280;40161;39.768;2.722;2023-04-19T10:12:19;101178.31;;;18.14;44.77
54248;BME280;40161;39.768;2.722;2023-04-19T10:14:47;101188.94;;;18.22;45.43
54248;BME280;40161;39.768;2.722;2023-04-19T10:17:13;101177.44;;;18.24;44.19
54248;BME280;40161;39.768;2.722;2023-04-19T10:19:40;101195.56;;;18.39;42.58
54248;BME280;40161;39.768;2.722;2023-04-19T10:22:06;101185.25;;;18.36;42.37
54248;BME280;40161;39.768;2.722;2023-04-19T10:24:32;101186.81;;;18.44;42.47
54248;BME280;40161;39.768;2.722;2023-04-19T10:27:12;101187.09;;;18.57;43.46
54248;BME280;40161;39.768;2.722;2023-04-19T10:29:56;101179.06;;;18.66;41.55
54248;BME280;40161;39.768;2.722;2023-04-19T10:32:30;101180.25;;;18.72;43.44
54248;BME280;40161;39.768;2.722;2023-04-19T10:35:04;101177.78;;;18.78;44.99
54248;BME280;40161;39.768;2.722;2023-04-19T10:37:31;101174.25;;;18.74;44.44
54248;BME280;40161;39.768;2.722;2023-04-19T10:39:57;101173.38;;;18.84;44.58
54248;BME280;40161;39.768;2.722;2023-04-19T10:42:22;101164.25;;;18.84;43.01
54248;BME280;40161;39.768;2.722;2023-04-19T10:47:51;101164.88;;;18.98;44.37
54248;BME280;40161;39.768;2.722;2023-04-19T10:50:17;101132.03;;;18.90;45.12
54248;BME280;40161;39.768;2.722;2023-04-19T10:52:43;101167.91;;;19.15;45.93
54248;BME280;40161;39.768;2.722;2023-04-19T10:55:08;101146.50;;;19.08;44.79
54248;BME280;40161;39.768;2.722;2023-04-19T10:58:02;101158.63;;;19.25;43.95
54248;BME280;40161;39.768;2.722;2023-04-19T11:00:28;101149.47;;;19.28;44.49
54248;BME280;40161;39.768;2.722;2023-04-19T11:02:57;101139.88;;;19.33;43.68
54248;BME280;40161;39.768;2.722;2023-04-19T11:05:22;101129.84;;;19.39;42.92
54248;BME280;40161;39.768;2.722;2023-04-19T11:07:48;101125.16;;;19.32;42.40
54248;BME280;40161;39.768;2.722;2023-04-19T11:10:27;101124.25;;;19.42;42.32
54248;BME280;40161;39.768;2.722;2023-04-19T11:12:53;101118.19;;;19.48;43.27
54248;BME280;40161;39.768;2.722;2023-04-19T11:15:21;101139.19;;;19.56;39.30
54248;BME280;40161;39.768;2.722;2023-04-19T11:17:49;101136.72;;;19.65;40.05
54248;BME280;40161;39.768;2.722;2023-04-19T11:20:16;101106.13;;;19.58;42.09
54248;BME280;40161;39.768;2.722;2023-04-19T11:22:44;101125.47;;;19.72;42.35
54248;BME280;40161;39.768;2.722;2023-04-19T11:25:20;101131.63;;;19.87;40.90
54248;BME280;40161;39.768;2.722;2023-04-19T11:27:51;101124.44;;;19.89;41.67
54248;BME280;40161;39.768;2.722;2023-04-19T11:30:21;101126.63;;;20.02;40.42
54248;BME280;40161;39.768;2.722;2023-04-19T11:32:54;101097.38;;;19.90;41.97
54248;BME280;40161;39.768;2.722;2023-04-19T11:35:24;101118.16;;;20.09;42.27
54248;BME280;40161;39.768;2.722;2023-04-19T11:37:51;101113.31;;;20.13;41.26
54248;BME280;40161;39.768;2.722;2023-04-19T11:40:19;101103.03;;;20.10;41.61
54248;BME280;40161;39.768;2.722;2023-04-19T11:42:45;101092.22;;;20.12;41.89
54248;BME280;40161;39.768;2.722;2023-04-19T11:45:12;101088.28;;;20.09;41.38
54248;BME280;40161;39.768;2.722;2023-04-19T11:47:49;101095.63;;;20.23;42.01
54248;BME280;40161;39.768;2.722;2023-04-19T11:50:41;101081.81;;;20.16;42.12
54248;BME280;40161;39.768;2.722;2023-04-19T11:53:23;101078.06;;;20.26;42.09
54248;BME280;40161;39.768;2.722;2023-04-19T11:55:54;101042.59;;;20.07;41.40
54248;BME280;40161;39.768;2.722;2023-04-19T11:58:27;101075.16;;;20.33;39.94
54248;BME280;40161;39.768;2.722;2023-04-19T12:01:04;101068.66;;;20.40;37.96
54248;BME280;40161;39.768;2.722;2023-04-19T12:03:34;101055.88;;;20.43;41.00
54248;BME280;40161;39.768;2.722;2023-04-19T12:06:01;101052.19;;;20.49;38.70
54248;BME280;40161;39.768;2.722;2023-04-19T12:08:44;101044.59;;;20.50;40.33
54248;BME280;40161;39.768;2.722;2023-04-19T12:11:11;101068.41;;;20.58;41.15
54248;BME280;40161;39.768;2.722;2023-04-19T12:13:37;101025.16;;;20.46;42.09
54248;BME280;40161;39.768;2.722;2023-04-19T12:16:07;101041.22;;;20.62;41.38
54248;BME280;40161;39.768;2.722;2023-04-19T12:18:47;101044.22;;;20.71;39.80
54248;BME280;40161;39.768;2.722;2023-04-19T12:23:53;101029.94;;;20.69;43.10
54248;BME280;40161;39.768;2.722;2023-04-19T12:26:18;101029.72;;;20.60;41.65
54248;BME280;40161;39.768;2.722;2023-04-19T12:28:44;101004.97;;;20.62;41.74
54248;BME280;40161;39.768;2.722;2023-04-19T12:31:10;101029.78;;;20.76;42.18
54248;BME280;40161;39.768;2.722;2023-04-19T12:33:35;101012.34;;;20.72;42.09
54248;BME280;40161;39.768;2.722;2023-04-19T12:36:01;101024.94;;;20.80;42.44
54248;BME280;40161;39.768;2.722;2023-04-19T12:38:26;101012.28;;;20.76;42.00
54248;BME280;40161;39.768;2.722;2023-04-19T12:40:52;101010.34;;;20.73;43.79
54248;BME280;40161;39.768;2.722;2023-04-19T12:43:17;101004.31;;;20.74;44.13
54248;BME280;40161;39.768;2.722;2023-04-19T12:45:43;101020.06;;;20.84;43.83
54248;BME280;40161;39.768;2.722;2023-04-19T12:48:08;100952.81;;;20.39;43.65
54248;BME280;40161;39.768;2.722;2023-04-19T12:50:34;101010.41;;;20.89;43.49
54248;BME280;40161;39.768;2.722;2023-04-19T12:52:59;100945.75;;;20.34;43.93